Time,TemperatureF,DewpointF,PressureIn,WindDirection,WindDirectionDegrees,WindSpeedMPH,WindSpeedGustMPH,Humidity,HourlyPrecipIn,Conditions,Clouds,dailyrainin,SoftwareType,DateUTC
2013-06-13 00:02:00,51.0,34.0,-100.00,SSW,199,-999.0,-999.0,52,-99.99,,,-99.99,,2013-06-13 06:02:00,
2013-06-13 00:11:00,51.0,37.0,-100.00,SSW,199,-999.0,-999.0,60,-99.99,,,-99.99,,2013-06-13 06:11:00,
2013-06-13 00:22:00,48.0,33.0,-100.00,SSW,199,-999.0,-999.0,58,-99.99,,,-99.99,,2013-06-13 06:22:00,
2013-06-13 00:33:00,47.0,36.0,-100.00,SSW,199,-999.0,-999.0,66,-99.99,,,-99.99,,2013-06-13 06:33:00,
2013-06-13 00:44:00,46.0,35.0,-100.00,SSW,199,-999.0,-999.0,66,-99.99,,,-99.99,,2013-06-13 06:44:00,
2013-06-13 00:52:00,46.0,35.0,-100.00,SSW,199,-999.0,-999.0,67,-99.99,,,-99.99,,2013-06-13 06:52:00,
2013-06-13 01:01:00,46.0,35.0,-100.00,SSW,199,-999.0,-999.0,67,-99.99,,,-99.99,,2013-06-13 07:01:00,
2013-06-13 01:11:00,44.0,35.0,-100.00,SSW,199,-999.0,-999.0,71,-99.99,,,-99.99,,2013-06-13 07:11:00,
2013-06-13 01:22:00,44.0,35.0,-100.00,SSW,199,-999.0,-999.0,71,-99.99,,,-99.99,,2013-06-13 07:22:00,
2013-06-13 01:33:00,43.0,35.0,-100.00,SSW,199,-999.0,-999.0,74,-99.99,,,-99.99,,2013-06-13 07:33:00,
2013-06-13 01:42:00,42.0,34.0,-100.00,SSW,199,-999.0,-999.0,74,-99.99,,,-99.99,,2013-06-13 07:42:00,
2013-06-13 01:52:00,43.0,34.0,-100.00,SSW,199,-999.0,-999.0,73,-99.99,,,-99.99,,2013-06-13 07:52:00,
2013-06-13 02:01:00,43.0,34.0,-100.00,SSW,199,-999.0,-999.0,70,-99.99,,,-99.99,,2013-06-13 08:01:00,
2013-06-13 02:11:00,43.0,34.0,-100.00,SSW,199,-999.0,-999.0,70,-99.99,,,-99.99,,2013-06-13 08:11:00,
2013-06-13 02:22:00,43.0,34.0,-100.00,SSW,199,-999.0,-999.0,71,-99.99,,,-99.99,,2013-06-13 08:22:00,
2013-06-13 02:32:00,43.0,34.0,-100.00,SSW,199,-999.0,-999.0,70,-99.99,,,-99.99,,2013-06-13 08:32:00,
2013-06-13 02:43:00,42.0,32.0,-100.00,SSW,199,-999.0,1.0,70,-99.99,,,-99.99,,2013-06-13 08:43:00,
2013-06-13 02:52:00,42.0,33.0,-100.00,SSW,199,-999.0,1.0,72,-99.99,,,-99.99,,2013-06-13 08:52:00,
2013-06-13 03:02:00,42.0,33.0,-100.00,SSW,199,-999.0,3.0,72,-99.99,,,-99.99,,2013-06-13 09:02:00,
2013-06-13 03:11:00,43.0,34.0,-100.00,SSW,199,-999.0,1.0,72,-99.99,,,-99.99,,2013-06-13 09:11:00,
2013-06-13 03:22:00,44.0,34.0,-100.00,SSW,199,-999.0,1.0,70,-99.99,,,-99.99,,2013-06-13 09:22:00,
2013-06-13 03:32:00,43.0,34.0,-100.00,WSW,251,0.0,5.0,72,-99.99,,,-99.99,,2013-06-13 09:32:00,
2013-06-13 03:42:00,44.0,35.0,-100.00,WSW,251,0.0,7.0,72,-99.99,,,-99.99,,2013-06-13 09:42:00,
2013-06-13 03:52:00,44.0,33.0,-100.00,WSW,251,0.0,7.0,65,-99.99,,,-99.99,,2013-06-13 09:52:00,
2013-06-13 04:01:00,43.0,31.0,-100.00,WSW,251,0.0,5.0,64,-99.99,,,-99.99,,2013-06-13 10:01:00,
2013-06-13 04:11:00,42.0,32.0,-100.00,WSW,251,0.0,5.0,70,-99.99,,,-99.99,,2013-06-13 10:11:00,
2013-06-13 04:22:00,42.0,29.0,-100.00,WSW,251,0.0,5.0,62,-99.99,,,-99.99,,2013-06-13 10:22:00,
2013-06-13 04:33:00,41.0,29.0,-100.00,WSW,251,0.0,3.0,62,-99.99,,,-99.99,,2013-06-13 10:33:00,
2013-06-13 04:42:00,40.0,31.0,-100.00,WSW,251,0.0,4.0,70,-99.99,,,-99.99,,2013-06-13 10:42:00,
2013-06-13 04:53:00,40.0,30.0,-100.00,WSW,251,0.0,4.0,69,-99.99,,,-99.99,,2013-06-13 10:53:00,
2013-06-13 05:02:00,38.0,30.0,-100.00,WSW,251,0.0,4.0,74,-99.99,,,-99.99,,2013-06-13 11:02:00,
2013-06-13 05:11:00,37.0,30.0,-100.00,WSW,251,0.0,4.0,78,-99.99,,,-99.99,,2013-06-13 11:11:00,
2013-06-13 05:23:00,37.0,29.0,-100.00,WSW,251,0.0,4.0,75,-99.99,,,-99.99,,2013-06-13 11:23:00,
2013-06-13 05:32:00,42.0,27.0,-100.00,WSW,251,-999.0,7.0,57,-99.99,,,-99.99,,2013-06-13 11:32:00,
2013-06-13 05:42:00,41.0,28.0,-100.00,WSW,251,-999.0,3.0,61,-99.99,,,-99.99,,2013-06-13 11:42:00,
2013-06-13 05:52:00,42.0,26.0,-100.00,WSW,251,-999.0,3.0,53,-99.99,,,-99.99,,2013-06-13 11:52:00,
2013-06-13 06:01:00,48.0,29.0,-100.00,WSW,251,-999.0,7.0,48,-99.99,,,-99.99,,2013-06-13 12:01:00,
2013-06-13 06:11:00,47.0,27.0,-100.00,WSW,251,-999.0,7.0,47,-99.99,,,-99.99,,2013-06-13 12:11:00,
2013-06-13 06:22:00,47.0,25.0,-100.00,WSW,251,-999.0,7.0,42,-99.99,,,-99.99,,2013-06-13 12:22:00,
2013-06-13 06:34:00,46.0,30.0,-100.00,WSW,251,-999.0,7.0,54,-99.99,,,-99.99,,2013-06-13 12:34:00,
2013-06-13 06:42:00,46.0,30.0,-100.00,WSW,251,-999.0,2.0,54,-99.99,,,-99.99,,2013-06-13 12:42:00,
2013-06-13 06:52:00,47.0,32.0,-100.00,West,262,0.0,2.0,57,-99.99,,,-99.99,,2013-06-13 12:52:00,
2013-06-13 07:01:00,51.0,28.0,-100.00,West,262,0.0,5.0,40,-99.99,,,-99.99,,2013-06-13 13:01:00,
2013-06-13 07:11:00,48.0,32.0,-100.00,West,262,0.0,2.0,55,-99.99,,,-99.99,,2013-06-13 13:11:00,
2013-06-13 07:21:00,48.0,30.0,-100.00,West,262,0.0,2.0,51,-99.99,,,-99.99,,2013-06-13 13:21:00,
2013-06-13 07:32:00,44.0,35.0,-100.00,West,262,0.0,2.0,71,-99.99,,,-99.99,,2013-06-13 13:32:00,
2013-06-13 07:43:00,44.0,36.0,-100.00,West,262,0.0,2.0,74,-99.99,,,-99.99,,2013-06-13 13:43:00,
2013-06-13 07:53:00,44.0,35.0,-100.00,West,262,0.0,2.0,71,-99.99,,,-99.99,,2013-06-13 13:53:00,
2013-06-13 08:02:00,44.0,37.0,-100.00,West,262,0.0,2.0,77,-99.99,,,-99.99,,2013-06-13 14:02:00,
2013-06-13 08:11:00,44.0,33.0,-100.00,West,262,0.0,1.0,67,-99.99,,,-99.99,,2013-06-13 14:11:00,
2013-06-13 08:22:00,46.0,36.0,-100.00,West,262,0.0,1.0,71,-99.99,,,-99.99,,2013-06-13 14:22:00,
2013-06-13 08:33:00,46.0,39.0,-100.00,West,262,0.0,1.0,78,-99.99,,,-99.99,,2013-06-13 14:33:00,
2013-06-13 08:43:00,50.0,39.0,-100.00,West,262,0.0,1.0,66,-99.99,,,-99.99,,2013-06-13 14:43:00,
2013-06-13 08:53:00,50.0,41.0,-100.00,West,262,0.0,1.0,71,-99.99,,,-99.99,,2013-06-13 14:53:00,
2013-06-13 09:01:00,53.0,40.0,-100.00,West,262,-999.0,1.0,62,-99.99,,,-99.99,,2013-06-13 15:01:00,
2013-06-13 09:12:00,53.0,40.0,-100.00,West,262,-999.0,1.0,62,-99.99,,,-99.99,,2013-06-13 15:12:00,
2013-06-13 09:22:00,55.0,47.0,-100.00,West,262,-999.0,-999.0,74,-99.99,,,-99.99,,2013-06-13 15:22:00,
2013-06-13 09:33:00,59.0,37.0,-100.00,West,262,-999.0,-999.0,44,-99.99,,,-99.99,,2013-06-13 15:33:00,
2013-06-13 09:43:00,59.0,37.0,-100.00,West,262,-999.0,-999.0,44,-99.99,,,-99.99,,2013-06-13 15:43:00,
2013-06-13 09:53:00,63.0,37.0,-100.00,West,262,-999.0,-999.0,38,-99.99,,,-99.99,,2013-06-13 15:53:00,
2013-06-13 10:01:00,65.0,34.0,-100.00,West,262,-999.0,-999.0,31,-99.99,,,-99.99,,2013-06-13 16:01:00,
2013-06-13 10:12:00,63.0,31.0,-100.00,West,262,-999.0,-999.0,29,-99.99,,,-99.99,,2013-06-13 16:12:00,
2013-06-13 10:22:00,63.0,29.0,-100.00,West,262,-999.0,-999.0,27,-99.99,,,-99.99,,2013-06-13 16:22:00,
2013-06-13 10:33:00,66.0,32.0,-100.00,West,262,-999.0,3.0,28,-99.99,,,-99.99,,2013-06-13 16:33:00,
2013-06-13 10:43:00,67.0,34.0,-100.00,West,262,-999.0,9.0,29,-99.99,,,-99.99,,2013-06-13 16:43:00,
2013-06-13 10:53:00,67.0,30.0,-100.00,West,262,0.0,9.0,24,-99.99,,,-99.99,,2013-06-13 16:53:00,
2013-06-13 11:02:00,67.0,32.0,-100.00,West,262,0.0,10.0,26,-99.99,,,-99.99,,2013-06-13 17:02:00,
2013-06-13 11:11:00,67.0,31.0,-100.00,West,262,0.0,7.0,25,-99.99,,,-99.99,,2013-06-13 17:11:00,
2013-06-13 11:24:00,67.0,33.0,-100.00,SW,217,3.0,7.0,27,-99.99,,,-99.99,,2013-06-13 17:24:00,
2013-06-13 11:33:00,67.0,31.0,-100.00,SW,217,3.0,11.0,25,-99.99,,,-99.99,,2013-06-13 17:33:00,
2013-06-13 11:43:00,68.0,32.0,-100.00,SW,217,3.0,9.0,25,-99.99,,,-99.99,,2013-06-13 17:43:00,
2013-06-13 11:53:00,67.0,32.0,-100.00,WSW,239,3.0,9.0,27,-99.99,,,-99.99,,2013-06-13 17:53:00,
2013-06-13 12:02:00,67.0,32.0,-100.00,WSW,239,3.0,12.0,27,-99.99,,,-99.99,,2013-06-13 18:02:00,
2013-06-13 12:11:00,64.0,30.0,-100.00,WSW,239,3.0,8.0,27,-99.99,,,-99.99,,2013-06-13 18:11:00,
2013-06-13 12:22:00,64.0,31.0,-100.00,West,262,2.0,8.0,28,-99.99,,,-99.99,,2013-06-13 18:22:00,
2013-06-13 12:33:00,66.0,30.0,-100.00,West,262,2.0,6.0,25,-99.99,,,-99.99,,2013-06-13 18:33:00,
2013-06-13 12:43:00,65.0,33.0,-100.00,West,262,2.0,9.0,29,-99.99,,,-99.99,,2013-06-13 18:43:00,
2013-06-13 12:52:00,65.0,31.0,-100.00,West,262,2.0,9.0,27,-99.99,,,-99.99,,2013-06-13 18:52:00,
2013-06-13 13:01:00,65.0,30.0,-100.00,West,262,2.0,6.0,26,-99.99,,,-99.99,,2013-06-13 19:01:00,
2013-06-13 13:11:00,65.0,32.0,-100.00,West,262,2.0,7.0,28,-99.99,,,-99.99,,2013-06-13 19:11:00,
2013-06-13 13:22:00,64.0,31.0,-100.00,West,262,2.0,7.0,28,-99.99,,,-99.99,,2013-06-13 19:22:00,
2013-06-13 13:33:00,60.0,31.0,-100.00,WSW,256,1.0,19.0,33,-99.99,,,-99.99,,2013-06-13 19:33:00,
2013-06-13 13:43:00,65.0,34.0,-100.00,West,274,5.0,16.0,31,-99.99,,,-99.99,,2013-06-13 19:43:00,
2013-06-13 13:53:00,65.0,33.0,-100.00,West,274,5.0,16.0,30,-99.99,,,-99.99,,2013-06-13 19:53:00,
2013-06-13 14:01:00,66.0,33.0,-100.00,West,274,5.0,10.0,29,-99.99,,,-99.99,,2013-06-13 20:01:00,
2013-06-13 14:11:00,69.0,32.0,-100.00,South,188,3.0,9.0,25,-99.99,,,-99.99,,2013-06-13 20:11:00,
2013-06-13 14:22:00,68.0,33.0,-100.00,South,188,3.0,9.0,26,-99.99,,,-99.99,,2013-06-13 20:22:00,
2013-06-13 14:32:00,70.0,32.0,-100.00,West,279,3.0,11.0,23,-99.99,,,-99.99,,2013-06-13 20:32:00,
2013-06-13 14:44:00,65.0,32.0,-100.00,West,279,3.0,14.0,29,-99.99,,,-99.99,,2013-06-13 20:44:00,
2013-06-13 14:53:00,64.0,30.0,-100.00,West,262,7.0,14.0,27,-99.99,,,-99.99,,2013-06-13 20:53:00,
2013-06-13 15:02:00,62.0,29.0,-100.00,West,262,7.0,17.0,28,-99.99,,,-99.99,,2013-06-13 21:02:00,
2013-06-13 15:11:00,68.0,34.0,-100.00,South,182,4.0,9.0,28,-99.99,,,-99.99,,2013-06-13 21:11:00,
2013-06-13 15:22:00,68.0,32.0,-100.00,South,182,4.0,9.0,25,-99.99,,,-99.99,,2013-06-13 21:22:00,
2013-06-13 15:34:00,70.0,29.0,-100.00,South,188,3.0,9.0,21,-99.99,,,-99.99,,2013-06-13 21:34:00,
2013-06-13 15:43:00,69.0,28.0,-100.00,South,188,3.0,13.0,21,-99.99,,,-99.99,,2013-06-13 21:43:00,
2013-06-13 15:52:00,69.0,33.0,-100.00,West,268,5.0,13.0,25,-99.99,,,-99.99,,2013-06-13 21:52:00,
2013-06-13 16:02:00,67.0,28.0,-100.00,West,262,6.0,14.0,22,-99.99,,,-99.99,,2013-06-13 22:02:00,
2013-06-13 16:11:00,69.0,30.0,-100.00,West,262,6.0,14.0,22,-99.99,,,-99.99,,2013-06-13 22:11:00,
2013-06-13 16:22:00,69.0,31.0,-100.00,West,274,4.0,14.0,23,-99.99,,,-99.99,,2013-06-13 22:22:00,
2013-06-13 16:32:00,69.0,29.0,-100.00,WNW,285,7.0,14.0,22,-99.99,,,-99.99,,2013-06-13 22:32:00,
2013-06-13 16:42:00,67.0,28.0,-100.00,WSW,251,9.0,16.0,22,-99.99,,,-99.99,,2013-06-13 22:42:00,
2013-06-13 16:52:00,68.0,32.0,-100.00,WSW,251,9.0,16.0,25,-99.99,,,-99.99,,2013-06-13 22:52:00,
2013-06-13 17:02:00,69.0,31.0,-100.00,SW,234,6.0,14.0,23,-99.99,,,-99.99,,2013-06-13 23:02:00,
2013-06-13 17:11:00,70.0,29.0,-100.00,SW,234,6.0,10.0,20,-99.99,,,-99.99,,2013-06-13 23:11:00,
2013-06-13 17:22:00,69.0,30.0,-100.00,East,91,3.0,10.0,22,-99.99,,,-99.99,,2013-06-13 23:22:00,
2013-06-13 17:32:00,70.0,30.0,-100.00,East,91,3.0,11.0,22,-99.99,,,-99.99,,2013-06-13 23:32:00,
2013-06-13 17:43:00,70.0,30.0,-100.00,East,91,3.0,8.0,22,-99.99,,,-99.99,,2013-06-13 23:43:00,
2013-06-13 17:52:00,69.0,27.0,-100.00,East,91,3.0,8.0,20,-99.99,,,-99.99,,2013-06-13 23:52:00,
2013-06-13 18:01:00,64.0,30.0,-100.00,WSW,251,2.0,9.0,27,-99.99,,,-99.99,,2013-06-14 00:01:00,
2013-06-13 18:11:00,63.0,31.0,-100.00,WSW,251,2.0,5.0,29,-99.99,,,-99.99,,2013-06-14 00:11:00,
2013-06-13 18:22:00,63.0,34.0,-100.00,WSW,251,2.0,5.0,34,-99.99,,,-99.99,,2013-06-14 00:22:00,
2013-06-13 18:34:00,59.0,42.0,-100.00,WSW,251,2.0,2.0,54,-99.99,,,-99.99,,2013-06-14 00:34:00,
2013-06-13 18:43:00,61.0,43.0,-100.00,WSW,251,2.0,5.0,52,-99.99,,,-99.99,,2013-06-14 00:43:00,
2013-06-13 18:53:00,61.0,43.0,-100.00,WSW,251,2.0,5.0,51,-99.99,,,-99.99,,2013-06-14 00:53:00,
2013-06-13 19:01:00,61.0,42.0,-100.00,WSW,251,2.0,5.0,50,-99.99,,,-99.99,,2013-06-14 01:01:00,
2013-06-13 19:11:00,60.0,43.0,-100.00,WSW,251,2.0,5.0,54,-99.99,,,-99.99,,2013-06-14 01:11:00,
2013-06-13 19:22:00,59.0,42.0,-100.00,WSW,251,2.0,5.0,54,-99.99,,,-99.99,,2013-06-14 01:22:00,
2013-06-13 19:32:00,58.0,45.0,-100.00,WSW,251,2.0,5.0,62,-99.99,,,-99.99,,2013-06-14 01:32:00,
2013-06-13 19:43:00,55.0,45.0,-100.00,WSW,251,2.0,-999.0,69,-99.99,,,-99.99,,2013-06-14 01:43:00,
2013-06-13 19:52:00,55.0,45.0,-100.00,WSW,251,2.0,-999.0,70,-99.99,,,-99.99,,2013-06-14 01:52:00,
2013-06-13 20:02:00,53.0,45.0,-100.00,WSW,251,-999.0,-999.0,76,-99.99,,,-99.99,,2013-06-14 02:02:00,
2013-06-13 20:11:00,51.0,45.0,-100.00,WSW,251,-999.0,-999.0,80,-99.99,,,-99.99,,2013-06-14 02:11:00,
2013-06-13 20:22:00,51.0,45.0,-100.00,WSW,251,-999.0,-999.0,80,-99.99,,,-99.99,,2013-06-14 02:22:00,
2013-06-13 20:32:00,50.0,45.0,-100.00,WSW,251,-999.0,-999.0,82,-99.99,,,-99.99,,2013-06-14 02:32:00,
2013-06-13 20:43:00,49.0,44.0,-100.00,WSW,251,-999.0,-999.0,83,-99.99,,,-99.99,,2013-06-14 02:43:00,
2013-06-13 20:52:00,49.0,44.0,-100.00,WSW,251,-999.0,-999.0,84,-99.99,,,-99.99,,2013-06-14 02:52:00,
2013-06-13 21:02:00,48.0,43.0,-100.00,WSW,251,-999.0,-999.0,83,-99.99,,,-99.99,,2013-06-14 03:02:00,
2013-06-13 21:11:00,46.0,39.0,-100.00,WSW,251,-999.0,-999.0,78,-99.99,,,-99.99,,2013-06-14 03:11:00,
2013-06-13 21:22:00,46.0,39.0,-100.00,WSW,251,-999.0,-999.0,78,-99.99,,,-99.99,,2013-06-14 03:22:00,
2013-06-13 21:34:00,45.0,39.0,-100.00,WSW,251,-999.0,-999.0,81,-99.99,,,-99.99,,2013-06-14 03:34:00,
2013-06-13 21:43:00,45.0,39.0,-100.00,WSW,251,-999.0,-999.0,81,-99.99,,,-99.99,,2013-06-14 03:43:00,
2013-06-13 21:52:00,44.0,38.0,-100.00,WSW,251,-999.0,-999.0,82,-99.99,,,-99.99,,2013-06-14 03:52:00,
2013-06-13 22:01:00,45.0,39.0,-100.00,WSW,251,-999.0,-999.0,80,-99.99,,,-99.99,,2013-06-14 04:01:00,
2013-06-13 22:12:00,45.0,39.0,-100.00,WSW,251,-999.0,3.0,80,-99.99,,,-99.99,,2013-06-14 04:12:00,
2013-06-13 22:22:00,45.0,39.0,-100.00,WSW,251,-999.0,3.0,80,-99.99,,,-99.99,,2013-06-14 04:22:00,
2013-06-13 22:33:00,46.0,39.0,-100.00,WSW,251,-999.0,4.0,77,-99.99,,,-99.99,,2013-06-14 04:33:00,
2013-06-13 22:43:00,45.0,36.0,-100.00,WSW,251,-999.0,2.0,72,-99.99,,,-99.99,,2013-06-14 04:43:00,
2013-06-13 22:53:00,45.0,36.0,-100.00,WSW,251,-999.0,2.0,73,-99.99,,,-99.99,,2013-06-14 04:53:00,
2013-06-13 23:02:00,44.0,34.0,-100.00,WSW,251,-999.0,4.0,69,-99.99,,,-99.99,,2013-06-14 05:02:00,
2013-06-13 23:11:00,44.0,33.0,-100.00,WSW,251,-999.0,4.0,67,-99.99,,,-99.99,,2013-06-14 05:11:00,
2013-06-13 23:22:00,44.0,33.0,-100.00,WSW,251,-999.0,4.0,65,-99.99,,,-99.99,,2013-06-14 05:22:00,
2013-06-13 23:34:00,42.0,33.0,-100.00,WSW,251,-999.0,4.0,71,-99.99,,,-99.99,,2013-06-14 05:34:00,
2013-06-13 23:43:00,41.0,33.0,-100.00,WSW,251,-999.0,3.0,74,-99.99,,,-99.99,,2013-06-14 05:43:00,
2013-06-13 23:52:00,41.0,34.0,-100.00,WSW,251,-999.0,3.0,77,-99.99,,,-99.99,,2013-06-14 05:52:00,